createdAt,value
2022-10-24T00:01:38.760Z,99.94
2022-10-24T00:06:39.279Z,99.72
2022-10-24T00:09:07.190Z,99.50
2022-10-24T00:11:35.438Z,99.24
2022-10-24T00:14:03.744Z,98.95
2022-10-24T00:16:32.982Z,98.88
2022-10-24T00:19:00.766Z,98.77
2022-10-24T00:21:28.560Z,98.48
2022-10-24T00:23:56.447Z,98.00
2022-10-24T00:26:24.277Z,97.96
2022-10-24T00:28:52.134Z,97.80
2022-10-24T00:31:21.113Z,97.47
2022-10-24T00:33:50.295Z,97.95
2022-10-24T00:36:20.668Z,97.71
2022-10-24T00:38:49.004Z,97.74
2022-10-24T00:41:17.991Z,97.27
2022-10-24T00:43:45.967Z,96.67
2022-10-24T00:46:14.510Z,96.47
2022-10-24T00:48:46.865Z,96.63
2022-10-24T00:51:24.583Z,96.67
2022-10-24T00:56:30.236Z,97.16
2022-10-24T00:59:00.105Z,96.66
2022-10-24T01:01:29.264Z,96.79
2022-10-24T01:03:57.124Z,96.47
2022-10-24T01:06:36.060Z,96.45
2022-10-24T01:09:13.535Z,96.80
2022-10-24T01:11:53.110Z,96.19
2022-10-24T01:14:33.066Z,96.00
2022-10-24T01:17:09.282Z,95.79
2022-10-24T01:20:07.368Z,95.64
2022-10-24T01:22:49.056Z,95.22
2022-10-24T01:25:25.930Z,95.13
2022-10-24T01:28:02.409Z,95.62
2022-10-24T01:30:40.516Z,95.05
2022-10-24T01:33:17.362Z,94.75
2022-10-24T01:35:51.643Z,95.32
2022-10-24T01:38:26.474Z,95.04
2022-10-24T01:40:58.732Z,94.95
2022-10-24T01:43:29.401Z,94.96
2022-10-24T01:46:03.023Z,94.93
2022-10-24T01:48:34.443Z,95.18
2022-10-24T01:51:04.354Z,94.59
2022-10-24T01:53:33.110Z,95.49
2022-10-24T01:56:02.004Z,95.40
2022-10-24T01:58:29.873Z,95.34
2022-10-24T02:01:04.432Z,95.49
2022-10-24T02:03:35.735Z,95.57
2022-10-24T02:06:10.051Z,95.29
2022-10-24T02:08:47.048Z,95.73
2022-10-24T02:11:15.340Z,95.35
2022-10-24T02:13:48.837Z,95.09
2022-10-24T02:16:20.446Z,95.12
2022-10-24T02:18:49.907Z,94.20
2022-10-24T02:21:26.696Z,94.94
2022-10-24T02:23:59.596Z,94.31
2022-10-24T02:26:35.513Z,94.16
2022-10-24T02:29:12.862Z,93.59
2022-10-24T02:31:48.441Z,93.46
2022-10-24T02:34:18.531Z,93.63
2022-10-24T02:36:49.874Z,93.25
2022-10-24T02:39:18.502Z,93.32
2022-10-24T02:41:47.207Z,92.92
2022-10-24T02:44:17.904Z,92.72
2022-10-24T02:46:48.667Z,92.10
2022-10-24T02:49:16.488Z,92.33
2022-10-24T02:51:47.332Z,92.30
2022-10-24T02:54:15.771Z,92.46
2022-10-24T02:56:48.513Z,91.94
2022-10-24T02:59:16.277Z,92.05
2022-10-24T03:01:44.250Z,91.14
2022-10-24T03:04:13.395Z,91.29
2022-10-24T03:06:41.133Z,90.69
2022-10-24T03:09:09.199Z,91.17
2022-10-24T03:11:37.180Z,91.50
2022-10-24T03:14:05.279Z,91.35
2022-10-24T03:16:33.108Z,90.58
2022-10-24T03:19:00.851Z,91.26
2022-10-24T03:21:29.955Z,91.76
2022-10-24T03:23:57.874Z,91.40
2022-10-24T03:26:25.761Z,90.73
2022-10-24T03:28:53.529Z,91.70
2022-10-24T03:31:21.330Z,91.23
2022-10-24T03:33:49.089Z,91.38
2022-10-24T03:36:16.967Z,91.80
2022-10-24T03:38:46.145Z,91.61
2022-10-24T03:41:13.918Z,92.12
2022-10-24T03:43:41.682Z,91.68
2022-10-24T03:46:09.459Z,91.82
2022-10-24T03:48:37.430Z,92.22
2022-10-24T03:51:05.370Z,91.87
2022-10-24T03:53:33.113Z,92.27
2022-10-24T03:56:02.294Z,92.01
2022-10-24T03:58:30.043Z,92.08
2022-10-24T04:00:59.314Z,91.90
2022-10-24T04:03:27.729Z,92.15
2022-10-24T04:05:55.507Z,92.23
2022-10-24T04:08:23.460Z,92.24
2022-10-24T04:10:51.253Z,92.87
2022-10-24T04:13:20.466Z,92.36
2022-10-24T04:15:48.262Z,92.24
2022-10-24T04:18:16.025Z,92.08
2022-10-24T04:20:43.853Z,92.73
2022-10-24T04:23:11.815Z,92.24
2022-10-24T04:25:40.613Z,92.81
2022-10-24T04:28:08.569Z,92.31
2022-10-24T04:30:37.839Z,92.22
2022-10-24T04:33:05.750Z,92.44
2022-10-24T04:35:33.613Z,93.01
2022-10-24T04:38:01.459Z,92.37
2022-10-24T04:40:29.405Z,92.51
2022-10-24T04:42:57.164Z,92.04
2022-10-24T04:45:24.983Z,92.58
2022-10-24T04:47:54.037Z,91.85
2022-10-24T04:50:21.871Z,92.34
2022-10-24T04:52:49.589Z,91.90
2022-10-24T04:55:17.922Z,92.50
2022-10-24T04:57:46.060Z,92.33
2022-10-24T05:00:14.898Z,91.93
2022-10-24T05:02:42.810Z,91.73
2022-10-24T05:05:12.144Z,92.13
2022-10-24T05:07:40.384Z,92.18
2022-10-24T05:10:09.193Z,91.79
2022-10-24T05:12:37.528Z,91.56
2022-10-24T05:15:06.307Z,91.74
2022-10-24T05:17:34.249Z,91.36
2022-10-24T05:20:02.079Z,91.04
2022-10-24T05:22:31.258Z,91.20
2022-10-24T05:24:59.023Z,90.51
2022-10-24T05:27:26.847Z,90.12
2022-10-24T05:29:55.339Z,90.57
2022-10-24T05:32:25.041Z,90.08
2022-10-24T05:34:53.248Z,90.13
2022-10-24T05:37:21.089Z,89.85
2022-10-24T05:39:50.534Z,90.01
2022-10-24T05:42:19.112Z,90.60
2022-10-24T05:44:46.937Z,90.33
2022-10-24T05:47:14.852Z,90.60
2022-10-24T05:49:42.869Z,90.61
2022-10-24T05:52:10.665Z,91.15
2022-10-24T05:54:48.783Z,91.36
2022-10-24T05:57:24.712Z,91.06
2022-10-24T05:59:52.439Z,91.14
2022-10-24T06:02:21.976Z,90.93
2022-10-24T06:04:51.229Z,91.08
2022-10-24T06:07:19.891Z,91.66
2022-10-24T06:09:47.709Z,91.19
2022-10-24T06:12:15.543Z,91.03
2022-10-24T06:14:45.708Z,91.30
2022-10-24T06:17:13.546Z,91.32
2022-10-24T06:19:41.678Z,91.45
2022-10-24T06:22:09.942Z,90.79
2022-10-24T06:24:38.740Z,91.26
2022-10-24T06:27:07.322Z,90.75
2022-10-24T06:29:35.928Z,90.44
2022-10-24T06:32:05.460Z,90.26
2022-10-24T06:34:33.426Z,90.78
2022-10-24T06:37:01.179Z,90.30
2022-10-24T06:39:29.270Z,90.35
2022-10-24T06:41:57.102Z,90.81
2022-10-24T06:44:24.829Z,90.54
2022-10-24T06:46:52.636Z,90.13
2022-10-24T06:49:21.807Z,90.32
2022-10-24T06:51:49.741Z,90.18
2022-10-24T06:54:17.973Z,89.98
2022-10-24T06:56:45.856Z,90.61
2022-10-24T06:59:16.910Z,89.97
2022-10-24T07:01:45.754Z,89.68
2022-10-24T07:04:13.603Z,90.52
2022-10-24T07:06:42.736Z,89.42
2022-10-24T07:09:15.317Z,89.58
2022-10-24T07:11:43.817Z,89.40
2022-10-24T07:14:12.213Z,89.40
2022-10-24T07:16:40.542Z,89.08
2022-10-24T07:19:08.497Z,88.11
2022-10-24T07:21:36.575Z,88.13
2022-10-24T07:24:06.838Z,87.96
2022-10-24T07:26:34.710Z,88.10
2022-10-24T07:29:03.518Z,87.35
2022-10-24T07:31:33.464Z,87.18
2022-10-24T07:34:02.431Z,86.93
2022-10-24T07:36:31.626Z,86.62
2022-10-24T07:39:00.995Z,86.27
2022-10-24T07:41:32.178Z,87.10
2022-10-24T07:44:02.191Z,86.55
2022-10-24T07:46:30.675Z,85.87
2022-10-24T07:48:58.518Z,86.69
2022-10-24T07:51:28.072Z,86.41
2022-10-24T07:53:55.821Z,86.42
2022-10-24T07:56:23.716Z,86.03
2022-10-24T07:58:52.883Z,86.66
2022-10-24T08:01:24.725Z,86.24
2022-10-24T08:03:52.556Z,86.79
2022-10-24T08:06:23.356Z,86.40
2022-10-24T08:08:51.686Z,86.23
2022-10-24T08:11:22.550Z,86.28
2022-10-24T08:13:53.832Z,85.94
2022-10-24T08:16:23.494Z,86.25
2022-10-24T08:18:53.397Z,86.29
2022-10-24T08:21:23.357Z,86.52
2022-10-24T08:23:53.527Z,86.05
2022-10-24T08:26:23.371Z,86.34
2022-10-24T08:28:53.346Z,85.94
2022-10-24T08:31:23.341Z,86.04
2022-10-24T08:33:53.975Z,86.37
2022-10-24T08:36:25.091Z,86.01
2022-10-24T08:38:53.339Z,85.67
2022-10-24T08:41:28.468Z,85.62
2022-10-24T08:44:00.113Z,85.10
2022-10-24T08:46:38.173Z,85.52
2022-10-24T08:49:14.440Z,85.32
2022-10-24T08:51:47.006Z,84.75
2022-10-24T08:54:20.347Z,84.40
2022-10-24T08:56:49.453Z,84.59
2022-10-24T08:59:19.271Z,84.18
2022-10-24T09:01:52.015Z,84.21
2022-10-24T09:04:22.954Z,84.37
2022-10-24T09:06:54.969Z,84.46
2022-10-24T09:09:29.757Z,84.50
2022-10-24T09:12:02.615Z,84.29
2022-10-24T09:14:33.671Z,84.47
2022-10-24T09:17:03.620Z,84.36
2022-10-24T09:19:32.123Z,84.24
2022-10-24T09:22:02.163Z,83.25
2022-10-24T09:24:40.453Z,82.49
2022-10-24T09:27:15.859Z,82.99
2022-10-24T09:29:45.629Z,82.90
2022-10-24T09:32:18.808Z,83.12
2022-10-24T09:34:47.114Z,83.17
2022-10-24T09:37:34.359Z,82.35
2022-10-24T09:40:14.255Z,82.82
2022-10-24T09:42:48.389Z,83.48
2022-10-24T09:45:30.325Z,82.95
2022-10-24T09:47:59.823Z,82.48
2022-10-24T09:50:28.323Z,82.16
2022-10-24T09:52:59.965Z,82.08
2022-10-24T09:55:31.178Z,81.17
2022-10-24T09:58:04.107Z,81.61
2022-10-24T10:00:35.317Z,81.02
2022-10-24T10:03:06.439Z,80.65
2022-10-24T10:05:48.582Z,80.19
2022-10-24T10:08:22.629Z,80.55
2022-10-24T10:11:05.851Z,80.76
2022-10-24T10:13:41.100Z,80.33
2022-10-24T10:16:22.999Z,79.34
2022-10-24T10:18:50.938Z,80.38
2022-10-24T10:21:21.289Z,79.57
2022-10-24T10:23:50.994Z,79.17
2022-10-24T10:26:25.097Z,78.86
2022-10-24T10:28:56.946Z,79.06
2022-10-24T10:31:34.692Z,78.55
2022-10-24T10:34:20.253Z,79.27
2022-10-24T10:37:22.543Z,79.08
2022-10-24T10:40:18.049Z,79.20
2022-10-24T10:42:57.186Z,77.14
2022-10-24T10:45:42.041Z,77.93
2022-10-24T10:48:30.243Z,77.92
2022-10-24T10:51:05.852Z,78.46
2022-10-24T10:53:41.024Z,77.45
2022-10-24T10:56:25.471Z,77.55
2022-10-24T10:59:08.584Z,77.26
2022-10-24T11:01:45.211Z,77.29
2022-10-24T11:04:28.648Z,76.23
2022-10-24T11:07:07.682Z,77.06
2022-10-24T11:09:40.719Z,77.03
2022-10-24T11:12:15.941Z,77.38
2022-10-24T11:14:46.418Z,78.07
2022-10-24T11:17:20.130Z,77.32
2022-10-24T11:19:57.749Z,77.04
2022-10-24T11:22:28.163Z,77.80
2022-10-24T11:25:01.625Z,77.66
2022-10-24T11:27:37.948Z,77.94
2022-10-24T11:30:13.220Z,77.78
2022-10-24T11:32:47.325Z,77.53
2022-10-24T11:35:26.827Z,77.09
2022-10-24T11:38:00.351Z,76.94
2022-10-24T11:40:30.820Z,77.95
2022-10-24T11:43:11.468Z,77.10
2022-10-24T11:45:48.535Z,77.37
2022-10-24T11:48:25.258Z,76.44
2022-10-24T11:50:59.710Z,76.79
2022-10-24T11:53:50.726Z,77.34
2022-10-24T11:56:27.123Z,77.01
2022-10-24T11:58:59.169Z,75.92
2022-10-24T12:01:51.400Z,76.31
2022-10-24T12:04:44.881Z,76.85
2022-10-24T12:07:55.037Z,77.03
2022-10-24T12:10:32.872Z,76.95
2022-10-24T12:13:34.964Z,78.12
2022-10-24T12:16:14.492Z,78.16
2022-10-24T12:18:45.818Z,78.21
2022-10-24T12:21:16.936Z,77.63
2022-10-24T12:23:55.476Z,77.05
2022-10-24T12:26:28.417Z,77.19
2022-10-24T12:28:57.882Z,78.18
2022-10-24T12:31:29.677Z,78.11
2022-10-24T12:34:34.436Z,78.03
2022-10-24T12:37:05.547Z,78.44
2022-10-24T12:39:36.906Z,78.03
2022-10-24T12:42:05.517Z,78.18
2022-10-24T12:44:42.367Z,77.83
2022-10-24T12:47:33.310Z,77.80
2022-10-24T12:50:39.797Z,78.00
2022-10-24T12:53:21.267Z,78.02
2022-10-24T12:56:15.857Z,78.00
2022-10-24T12:58:46.597Z,78.58
2022-10-24T13:01:27.350Z,78.32
2022-10-24T13:04:20.871Z,78.38
2022-10-24T13:07:03.497Z,78.36
2022-10-24T13:09:44.601Z,78.29
2022-10-24T13:12:29.836Z,78.75
2022-10-24T13:15:12.229Z,78.09
2022-10-24T13:17:46.420Z,78.87
2022-10-24T13:20:19.764Z,78.74
2022-10-24T13:22:50.833Z,79.40
2022-10-24T13:25:34.531Z,78.71
2022-10-24T13:28:40.556Z,79.10
2022-10-24T13:31:45.769Z,78.92
2022-10-24T13:34:41.052Z,79.04
2022-10-24T13:37:26.627Z,77.95
2022-10-24T13:39:58.179Z,78.59
2022-10-24T13:42:36.330Z,78.33
2022-10-24T13:45:23.295Z,77.30
2022-10-24T13:47:55.500Z,77.66
2022-10-24T13:50:27.264Z,77.45
2022-10-24T13:53:00.130Z,76.44
2022-10-24T13:55:31.824Z,77.16
2022-10-24T13:58:03.190Z,76.28
2022-10-24T14:00:34.238Z,76.50
2022-10-24T14:03:05.857Z,76.43
2022-10-24T14:05:37.265Z,75.72
2022-10-24T14:08:06.965Z,75.31
2022-10-24T14:10:35.213Z,75.78
2022-10-24T14:13:05.724Z,76.27
2022-10-24T14:15:34.334Z,76.74
2022-10-24T14:18:04.764Z,77.65
2022-10-24T14:20:34.597Z,78.12
2022-10-24T14:23:02.923Z,78.77
2022-10-24T14:25:35.184Z,79.63
2022-10-24T14:28:12.368Z,80.43
2022-10-24T14:30:40.281Z,81.28
2022-10-24T14:33:20.684Z,82.62
2022-10-24T14:35:51.256Z,83.03
2022-10-24T14:38:22.940Z,83.25
2022-10-24T14:41:06.204Z,83.45
2022-10-24T14:43:42.016Z,83.87
2022-10-24T14:46:27.984Z,84.30
2022-10-24T14:48:55.874Z,84.42
2022-10-24T14:51:31.906Z,84.87
2022-10-24T14:54:02.944Z,85.32
2022-10-24T14:56:34.634Z,85.53
2022-10-24T14:59:06.513Z,85.74
2022-10-24T15:01:34.432Z,85.90
2022-10-24T15:04:04.972Z,86.46
2022-10-24T15:06:38.914Z,86.95
2022-10-24T15:09:16.775Z,87.31
2022-10-24T15:11:45.853Z,87.97
2022-10-24T15:14:38.735Z,88.33
2022-10-24T15:17:32.562Z,89.47
2022-10-24T15:20:03.204Z,89.04
2022-10-24T15:22:34.443Z,89.09
2022-10-24T15:25:05.469Z,89.85
2022-10-24T15:27:40.266Z,90.19
2022-10-24T15:30:14.492Z,90.32
2022-10-24T15:32:42.398Z,90.46
2022-10-24T15:35:10.915Z,90.57
2022-10-24T15:37:38.800Z,90.61
2022-10-24T15:40:13.700Z,91.25
2022-10-24T15:42:41.548Z,90.91
2022-10-24T15:45:16.134Z,91.02
2022-10-24T15:47:44.782Z,90.95
2022-10-24T15:50:15.183Z,90.73
2022-10-24T15:52:43.741Z,90.85
2022-10-24T15:55:17.845Z,90.91
2022-10-24T15:57:46.720Z,91.47
2022-10-24T16:00:19.868Z,91.17
2022-10-24T16:02:49.516Z,90.77
2022-10-24T16:05:18.961Z,90.68
2022-10-24T16:07:47.393Z,90.56
2022-10-24T16:10:19.739Z,90.76
2022-10-24T16:12:48.045Z,90.60
2022-10-24T16:15:21.240Z,90.75
2022-10-24T16:17:49.064Z,91.17
2022-10-24T16:20:17.560Z,90.70
2022-10-24T16:22:45.659Z,90.91
2022-10-24T16:25:16.957Z,90.74
2022-10-24T16:27:45.083Z,90.93
2022-10-24T16:30:13.753Z,90.57
2022-10-24T16:32:43.076Z,90.90
2022-10-24T16:35:17.246Z,90.48
2022-10-24T16:37:45.700Z,90.49
2022-10-24T16:40:13.802Z,90.37
2022-10-24T16:42:42.096Z,90.58
2022-10-24T16:45:10.729Z,90.94
2022-10-24T16:47:38.668Z,91.90
2022-10-24T16:50:09.221Z,92.10
2022-10-24T16:52:37.118Z,91.94
2022-10-24T16:55:05.473Z,92.39
2022-10-24T16:57:33.523Z,92.07
2022-10-24T17:00:01.359Z,92.02
2022-10-24T17:02:29.185Z,92.47
2022-10-24T17:04:56.968Z,92.02
2022-10-24T17:07:26.158Z,92.78
2022-10-24T17:09:53.958Z,92.71
2022-10-24T17:12:22.253Z,92.50
2022-10-24T17:14:50.310Z,93.13
2022-10-24T17:17:18.293Z,93.04
2022-10-24T17:19:48.470Z,93.29
2022-10-24T17:22:16.480Z,93.99
2022-10-24T17:24:46.017Z,94.03
2022-10-24T17:27:15.524Z,93.47
2022-10-24T17:29:44.491Z,94.07
2022-10-24T17:32:13.904Z,94.29
2022-10-24T17:34:43.511Z,94.36
2022-10-24T17:37:19.314Z,94.10
2022-10-24T17:39:50.712Z,94.08
2022-10-24T17:42:18.962Z,94.41
2022-10-24T17:44:47.758Z,94.55
2022-10-24T17:47:16.531Z,93.89
2022-10-24T17:49:44.748Z,94.51
2022-10-24T17:52:14.944Z,94.52
2022-10-24T17:54:45.728Z,94.41
2022-10-24T17:57:15.527Z,94.75
2022-10-24T17:59:43.361Z,94.41
2022-10-24T18:02:13.949Z,94.20
2022-10-24T18:04:42.952Z,94.07
2022-10-24T18:07:11.071Z,94.15
2022-10-24T18:09:40.104Z,93.96
2022-10-24T18:12:08.309Z,93.90
2022-10-24T18:14:38.700Z,93.45
2022-10-24T18:17:06.591Z,93.25
2022-10-24T18:19:34.863Z,93.83
2022-10-24T18:22:03.014Z,93.57
2022-10-24T18:24:31.029Z,93.26
2022-10-24T18:26:58.826Z,92.91
2022-10-24T18:29:26.875Z,93.29
2022-10-24T18:31:56.106Z,92.87
2022-10-24T18:34:24.515Z,93.10
2022-10-24T18:36:52.385Z,92.91
2022-10-24T18:39:20.547Z,93.08
2022-10-24T18:41:50.046Z,93.11
2022-10-24T18:44:29.440Z,93.04
2022-10-24T18:47:03.448Z,92.69
2022-10-24T18:49:33.583Z,92.26
2022-10-24T18:52:12.139Z,92.45
2022-10-24T18:54:46.382Z,92.96
2022-10-24T18:57:23.198Z,92.65
2022-10-24T18:59:51.752Z,93.10
2022-10-24T19:02:29.041Z,92.90
2022-10-24T19:05:13.703Z,93.75
2022-10-24T19:07:42.306Z,93.58
2022-10-24T19:10:16.741Z,94.37
2022-10-24T19:12:45.073Z,94.31
2022-10-24T19:15:14.675Z,94.68
2022-10-24T19:17:44.028Z,94.20
2022-10-24T19:20:16.914Z,94.58
2022-10-24T19:22:45.107Z,94.53
2022-10-24T19:25:13.435Z,94.85
2022-10-24T19:27:41.783Z,94.21
2022-10-24T19:30:11.506Z,94.70
2022-10-24T19:32:39.411Z,95.16
2022-10-24T19:35:09.380Z,95.67
2022-10-24T19:37:38.186Z,95.58
2022-10-24T19:40:08.151Z,95.55
2022-10-24T19:42:35.996Z,95.40
2022-10-24T19:45:05.172Z,95.79
2022-10-24T19:47:33.104Z,96.02
2022-10-24T19:50:01.169Z,96.27
2022-10-24T19:52:30.296Z,96.54
2022-10-24T19:54:58.064Z,95.97
2022-10-24T19:57:25.917Z,96.85
2022-10-24T19:59:53.983Z,96.40
2022-10-24T20:02:22.153Z,96.89
2022-10-24T20:04:49.933Z,98.77
2022-10-24T20:07:18.354Z,99.40
2022-10-24T20:09:48.163Z,99.78
2022-10-24T20:12:16.026Z,99.75
2022-10-24T20:14:43.785Z,99.28
2022-10-24T20:17:11.568Z,99.94
2022-10-24T20:19:39.353Z,99.45
2022-10-24T20:22:07.167Z,98.92
2022-10-24T20:24:34.980Z,98.96
2022-10-24T20:27:04.236Z,99.28
2022-10-24T20:29:32.440Z,98.51
2022-10-24T20:32:00.290Z,98.88
2022-10-24T20:34:28.321Z,97.98
2022-10-24T20:36:56.156Z,97.69
2022-10-24T20:39:24.076Z,97.52
2022-10-24T20:41:54.114Z,97.61
2022-10-24T20:44:23.812Z,97.40
2022-10-24T20:46:53.237Z,97.33
2022-10-24T20:49:21.065Z,97.51
2022-10-24T20:51:49.143Z,97.46
2022-10-24T20:54:17.177Z,97.45
2022-10-24T20:56:45.569Z,97.61
2022-10-24T20:59:14.164Z,97.16
2022-10-24T21:01:43.614Z,97.06
2022-10-24T21:04:12.852Z,97.52
2022-10-24T21:06:42.466Z,97.68
2022-10-24T21:09:10.328Z,97.20
2022-10-24T21:11:38.703Z,97.24
2022-10-24T21:14:08.053Z,97.13
2022-10-24T21:16:36.277Z,97.68
2022-10-24T21:19:05.991Z,97.18
2022-10-24T21:21:34.135Z,97.28
2022-10-24T21:24:06.525Z,97.44
2022-10-24T21:26:34.987Z,96.51
2022-10-24T21:29:09.358Z,96.65
2022-10-24T21:31:50.149Z,97.12
2022-10-24T21:34:20.009Z,96.90
2022-10-24T21:36:48.214Z,96.45
2022-10-24T21:39:17.235Z,96.61
2022-10-24T21:41:45.546Z,96.87
2022-10-24T21:44:14.428Z,97.38
2022-10-24T21:46:42.392Z,97.60
2022-10-24T21:49:10.351Z,97.21
2022-10-24T21:51:41.353Z,97.69
2022-10-24T21:54:16.756Z,97.17
2022-10-24T21:56:44.668Z,97.90
2022-10-24T21:59:14.974Z,97.80
2022-10-24T22:01:43.884Z,97.50
2022-10-24T22:04:13.151Z,97.86
2022-10-24T22:06:43.307Z,98.34
2022-10-24T22:09:15.182Z,98.29
2022-10-24T22:11:43.181Z,98.20
2022-10-24T22:14:12.738Z,98.84
2022-10-24T22:16:41.485Z,98.45
2022-10-24T22:19:11.045Z,98.61
2022-10-24T22:21:40.990Z,98.80
2022-10-24T22:24:12.109Z,98.73
2022-10-24T22:26:40.693Z,98.98
2022-10-24T22:29:11.518Z,98.57
2022-10-24T22:31:40.055Z,98.60
2022-10-24T22:34:08.165Z,98.87
2022-10-24T22:36:45.867Z,98.76
2022-10-24T22:39:17.597Z,99.08
2022-10-24T22:41:46.513Z,99.52
2022-10-24T22:44:16.310Z,100.00
2022-10-24T22:47:10.410Z,99.71
2022-10-24T22:49:48.400Z,100.00
2022-10-24T22:52:16.935Z,100.00
2022-10-24T22:54:46.817Z,100.00
2022-10-24T22:57:15.169Z,100.00
2022-10-24T22:59:44.061Z,100.00
2022-10-24T23:02:24.131Z,100.00
2022-10-24T23:05:03.905Z,100.00
2022-10-24T23:07:39.046Z,100.00
2022-10-24T23:10:12.009Z,100.00
2022-10-24T23:12:40.864Z,100.00
2022-10-24T23:15:14.306Z,100.00
2022-10-24T23:17:43.138Z,100.00
2022-10-24T23:20:22.946Z,100.00
2022-10-24T23:22:58.430Z,100.00
2022-10-24T23:25:39.190Z,100.00
2022-10-24T23:28:15.362Z,100.00
2022-10-24T23:30:43.726Z,100.00
2022-10-24T23:33:22.773Z,100.00
2022-10-24T23:35:56.161Z,100.00
2022-10-24T23:38:25.310Z,100.00
2022-10-24T23:40:55.436Z,100.00
2022-10-24T23:43:24.241Z,100.00
2022-10-24T23:45:58.560Z,100.00
2022-10-24T23:48:42.121Z,100.00
2022-10-24T23:51:15.651Z,100.00
2022-10-24T23:53:52.349Z,100.00
2022-10-24T23:56:23.331Z,100.00
2022-10-24T23:58:51.735Z,100.00
